Wetterdaten: Dienstag, 12.03.2019
Datum Zeit Temp. A. Temp. A. min Temp. A. max Feuchte A. Bod.Feucht 4 Luftdruck Regen Wind Richtung Richtung Sonnenschein ET Solar Taupunkt Windchill Windben Empfang
12.03.2019 00:00 1,9 C 1,9 C 2,2 C 78 % 0 cb 1027,6 hPa 0,0 l/m 1,6 km/h (1 Bft) W-SW 247 0 min 0,025 mm 0 W/m -1,5 C 1,9 C 6,4 km/h (2 Bft) 100,00 %
12.03.2019 00:10 1,8 C 1,8 C 1,9 C 79 % 0 cb 1027,6 hPa 0,0 l/m 1,6 km/h (1 Bft) W 270 0 min 0,000 mm 0 W/m -1,4 C 1,8 C 6,4 km/h (2 Bft) 100,00 %
12.03.2019 00:20 1,7 C 1,7 C 1,8 C 80 % 0 cb 1027,7 hPa 0,0 l/m 1,6 km/h (1 Bft) SW 225 0 min 0,000 mm 0 W/m -1,4 C 1,7 C 8,0 km/h (2 Bft) 100,00 %
12.03.2019 00:30 1,4 C 1,4 C 1,7 C 81 % 0 cb 1027,7 hPa 0,0 l/m 1,6 km/h (1 Bft) S-SW 202 0 min 0,000 mm 0 W/m -1,5 C 1,4 C 4,8 km/h (1 Bft) 100,00 %
12.03.2019 00:40 1,1 C 1,1 C 1,4 C 81 % 0 cb 1027,7 hPa 0,0 l/m 0,0 km/h (0 Bft) S-SW 202 0 min 0,000 mm 0 W/m -1,8 C 1,1 C 4,8 km/h (1 Bft) 100,00 %
12.03.2019 00:50 0,7 C 0,7 C 1,1 C 83 % 0 cb 1027,6 hPa 0,0 l/m 0,0 km/h (0 Bft) W 270 0 min 0,000 mm 0 W/m -1,8 C 0,7 C 8,0 km/h (2 Bft) 100,00 %
12.03.2019 01:00 0,5 C 0,5 C 0,7 C 84 % 0 cb 1027,6 hPa 0,0 l/m 1,6 km/h (1 Bft) W 270 0 min 0,000 mm 0 W/m -1,9 C 0,5 C 6,4 km/h (2 Bft) 99,56 %
12.03.2019 01:10 0,4 C 0,3 C 0,5 C 85 % 0 cb 1027,6 hPa 0,0 l/m 1,6 km/h (1 Bft) W-NW 292 0 min 0,000 mm 0 W/m -1,8 C 0,4 C 6,4 km/h (2 Bft) 100,00 %
12.03.2019 01:20 0,3 C 0,3 C 0,4 C 86 % 0 cb 1027,7 hPa 0,0 l/m 1,6 km/h (1 Bft) W 270 0 min 0,000 mm 0 W/m -1,8 C 0,3 C 4,8 km/h (1 Bft) 100,00 %
12.03.2019 01:30 0,3 C 0,3 C 0,3 C 87 % 0 cb 1027,6 hPa 0,0 l/m 1,6 km/h (1 Bft) W 270 0 min 0,000 mm 0 W/m -1,6 C 0,3 C 4,8 km/h (1 Bft) 100,00 %
12.03.2019 01:40 0,2 C 0,2 C 0,3 C 86 % 0 cb 1027,8 hPa 0,0 l/m 0,0 km/h (0 Bft) W 270 0 min 0,000 mm 0 W/m -1,9 C 0,2 C 1,6 km/h (1 Bft) 100,00 %
12.03.2019 01:50 -0,1 C -0,1 C 0,2 C 86 % 0 cb 1027,9 hPa 0,0 l/m 0,0 km/h (0 Bft) W 270 0 min 0,000 mm 0 W/m -2,2 C -0,1 C 1,6 km/h (1 Bft) 100,00 %
12.03.2019 02:00 -0,3 C -0,3 C -0,1 C 88 % 0 cb 1028,0 hPa 0,0 l/m 0,0 km/h (0 Bft) W 270 0 min 0,000 mm 0 W/m -2,0 C -0,3 C 4,8 km/h (1 Bft) 100,00 %
12.03.2019 02:10 -0,4 C -0,4 C -0,3 C 88 % 0 cb 1028,1 hPa 0,0 l/m 0,0 km/h (0 Bft) W 270 0 min 0,000 mm 0 W/m -2,1 C -0,4 C 1,6 km/h (1 Bft) 100,00 %
12.03.2019 02:20 -0,5 C -0,5 C -0,4 C 89 % 0 cb 1028,2 hPa 0,0 l/m 0,0 km/h (0 Bft) N 0 0 min 0,000 mm 0 W/m -2,1 C -0,5 C 0,0 km/h (0 Bft) 100,00 %
12.03.2019 02:30 -0,6 C -0,6 C -0,4 C 89 % 0 cb 1028,1 hPa 0,0 l/m 0,0 km/h (0 Bft) N 0 0 min 0,000 mm 0 W/m -2,2 C -0,6 C 0,0 km/h (0 Bft) 100,00 %
12.03.2019 02:40 -0,8 C -0,8 C -0,6 C 89 % 0 cb 1028,0 hPa 0,0 l/m 0,0 km/h (0 Bft) N 0 0 min 0,000 mm 0 W/m -2,4 C -0,8 C 0,0 km/h (0 Bft) 100,00 %
12.03.2019 02:50 -0,9 C -0,9 C -0,8 C 90 % 0 cb 1028,0 hPa 0,0 l/m 0,0 km/h (0 Bft) W 270 0 min 0,000 mm 0 W/m -2,3 C -0,9 C 1,6 km/h (1 Bft) 100,00 %
12.03.2019 03:00 -0,7 C -0,9 C -0,6 C 92 % 0 cb 1027,9 hPa 0,0 l/m 1,6 km/h (1 Bft) W 270 0 min 0,000 mm 0 W/m -1,8 C -0,7 C 4,8 km/h (1 Bft) 100,00 %
12.03.2019 03:10 -0,4 C -0,6 C -0,4 C 91 % 0 cb 1027,9 hPa 0,0 l/m 0,0 km/h (0 Bft) W 270 0 min 0,000 mm 0 W/m -1,7 C -0,4 C 1,6 km/h (1 Bft) 100,00 %
12.03.2019 03:20 -0,3 C -0,4 C -0,3 C 91 % 0 cb 1027,7 hPa 0,0 l/m 0,0 km/h (0 Bft) W 270 0 min 0,000 mm 0 W/m -1,6 C -0,3 C 1,6 km/h (1 Bft) 100,00 %
12.03.2019 03:30 -0,3 C -0,4 C -0,3 C 91 % 0 cb 1027,6 hPa 0,0 l/m 0,0 km/h (0 Bft) W 270 0 min 0,000 mm 0 W/m -1,6 C -0,3 C 1,6 km/h (1 Bft) 100,00 %
12.03.2019 03:40 -0,4 C -0,4 C -0,3 C 91 % 0 cb 1027,7 hPa 0,0 l/m 0,0 km/h (0 Bft) W 270 0 min 0,000 mm 0 W/m -1,7 C -0,4 C 1,6 km/h (1 Bft) 100,00 %
12.03.2019 03:50 -0,5 C -0,5 C -0,3 C 91 % 0 cb 1027,6 hPa 0,0 l/m 0,0 km/h (0 Bft) W 270 0 min 0,000 mm 0 W/m -1,8 C -0,5 C 1,6 km/h (1 Bft) 100,00 %
12.03.2019 04:00 -0,6 C -0,6 C -0,5 C 91 % 0 cb 1027,4 hPa 0,0 l/m 0,0 km/h (0 Bft) N 0 0 min 0,000 mm 0 W/m -1,9 C -0,6 C 0,0 km/h (0 Bft) 100,00 %
12.03.2019 04:10 -0,5 C -0,6 C -0,5 C 92 % 0 cb 1027,5 hPa 0,0 l/m 0,0 km/h (0 Bft) N 0 0 min 0,000 mm 0 W/m -1,6 C -0,5 C 0,0 km/h (0 Bft) 99,12 %
12.03.2019 04:20 -0,7 C -0,7 C -0,5 C 91 % 0 cb 1027,4 hPa 0,0 l/m 0,0 km/h (0 Bft) N 0 0 min 0,000 mm 0 W/m -2,0 C -0,7 C 0,0 km/h (0 Bft) 100,00 %
12.03.2019 04:30 -0,9 C -0,9 C -0,7 C 91 % 0 cb 1027,3 hPa 0,0 l/m 0,0 km/h (0 Bft) N 0 0 min 0,000 mm 0 W/m -2,2 C -0,9 C 0,0 km/h (0 Bft) 100,00 %
12.03.2019 04:40 -1,1 C -1,1 C -0,9 C 92 % 0 cb 1027,3 hPa 0,0 l/m 0,0 km/h (0 Bft) N 0 0 min 0,000 mm 0 W/m -2,2 C -1,1 C 0,0 km/h (0 Bft) 100,00 %
12.03.2019 04:50 -1,2 C -1,2 C -1,1 C 92 % 0 cb 1027,3 hPa 0,0 l/m 0,0 km/h (0 Bft) N 0 0 min 0,000 mm 0 W/m -2,3 C -1,2 C 0,0 km/h (0 Bft) 100,00 %
12.03.2019 05:00 -1,1 C -1,2 C -1,1 C 92 % 0 cb 1027,3 hPa 0,0 l/m 0,0 km/h (0 Bft) N 0 0 min 0,000 mm 0 W/m -2,2 C -1,1 C 0,0 km/h (0 Bft) 100,00 %
12.03.2019 05:10 -1,1 C -1,1 C -1,1 C 93 % 0 cb 1027,1 hPa 0,0 l/m 0,0 km/h (0 Bft) N 0 0 min 0,000 mm 0 W/m -2,1 C -1,1 C 0,0 km/h (0 Bft) 100,00 %
12.03.2019 05:20 -1,0 C -1,1 C -1,0 C 93 % 0 cb 1027,0 hPa 0,0 l/m 0,0 km/h (0 Bft) N 0 0 min 0,000 mm 0 W/m -2,0 C -1,0 C 0,0 km/h (0 Bft) 100,00 %
12.03.2019 05:30 -0,9 C -1,0 C -0,9 C 93 % 0 cb 1027,0 hPa 0,0 l/m 0,0 km/h (0 Bft) N 0 0 min 0,000 mm 0 W/m -1,9 C -0,9 C 0,0 km/h (0 Bft) 100,00 %
12.03.2019 05:40 -0,9 C -0,9 C -0,9 C 93 % 0 cb 1027,0 hPa 0,0 l/m 0,0 km/h (0 Bft) N 0 0 min 0,000 mm 0 W/m -1,9 C -0,9 C 0,0 km/h (0 Bft) 100,00 %
12.03.2019 05:50 -0,8 C -0,9 C -0,8 C 93 % 0 cb 1026,8 hPa 0,0 l/m 0,0 km/h (0 Bft) N 0 0 min 0,000 mm 0 W/m -1,8 C -0,8 C 0,0 km/h (0 Bft) 100,00 %
12.03.2019 06:00 -0,7 C -0,8 C -0,7 C 93 % 0 cb 1026,7 hPa 0,0 l/m 0,0 km/h (0 Bft) N 0 0 min 0,000 mm 0 W/m -1,7 C -0,7 C 0,0 km/h (0 Bft) 100,00 %
12.03.2019 06:10 -0,7 C -0,7 C -0,6 C 93 % 0 cb 1026,5 hPa 0,0 l/m 0,0 km/h (0 Bft) N 0 0 min 0,000 mm 0 W/m -1,7 C -0,7 C 0,0 km/h (0 Bft) 100,00 %
12.03.2019 06:20 -0,7 C -0,7 C -0,6 C 93 % 0 cb 1026,5 hPa 0,0 l/m 0,0 km/h (0 Bft) N 0 0 min 0,000 mm 0 W/m -1,7 C -0,7 C 0,0 km/h (0 Bft) 96,93 %
12.03.2019 06:30 -0,8 C -0,8 C -0,7 C 92 % 0 cb 1026,4 hPa 0,0 l/m 0,0 km/h (0 Bft) N 0 0 min 0,000 mm 0 W/m -1,9 C -0,8 C 0,0 km/h (0 Bft) 100,00 %
12.03.2019 06:40 -0,9 C -0,9 C -0,8 C 93 % 0 cb 1026,2 hPa 0,0 l/m 0,0 km/h (0 Bft) N 0 0 min 0,000 mm 0 W/m -1,9 C -0,9 C 0,0 km/h (0 Bft) 99,12 %
12.03.2019 06:50 -0,8 C -0,9 C -0,8 C 93 % 0 cb 1026,0 hPa 0,0 l/m 0,0 km/h (0 Bft) SW 225 0 min 0,000 mm 9 W/m -1,8 C -0,8 C 3,2 km/h (1 Bft) 100,00 %
12.03.2019 07:00 -0,8 C -0,8 C -0,8 C 93 % 0 cb 1026,0 hPa 0,0 l/m 0,0 km/h (0 Bft) N 0 0 min 0,000 mm 14 W/m -1,8 C -0,8 C 0,0 km/h (0 Bft) 99,12 %
12.03.2019 07:10 -0,8 C -0,8 C -0,8 C 93 % 0 cb 1025,9 hPa 0,0 l/m 0,0 km/h (0 Bft) N 0 0 min 0,000 mm 28 W/m -1,8 C -0,8 C 0,0 km/h (0 Bft) 100,00 %
12.03.2019 07:20 -0,8 C -0,8 C -0,8 C 93 % 0 cb 1025,9 hPa 0,0 l/m 0,0 km/h (0 Bft) N 0 0 min 0,000 mm 46 W/m -1,8 C -0,8 C 0,0 km/h (0 Bft) 100,00 %
12.03.2019 07:30 -0,7 C -0,8 C -0,7 C 93 % 0 cb 1025,7 hPa 0,0 l/m 0,0 km/h (0 Bft) N 0 0 min 0,000 mm 56 W/m -1,7 C -0,7 C 0,0 km/h (0 Bft) 100,00 %
12.03.2019 07:40 -0,7 C -0,7 C -0,7 C 93 % 0 cb 1025,6 hPa 0,0 l/m 0,0 km/h (0 Bft) N 0 0 min 0,000 mm 74 W/m -1,7 C -0,7 C 0,0 km/h (0 Bft) 100,00 %
12.03.2019 07:50 -0,5 C -0,7 C -0,5 C 93 % 0 cb 1025,4 hPa 0,0 l/m 0,0 km/h (0 Bft) SW 225 0 min 0,000 mm 84 W/m -1,5 C -0,5 C 1,6 km/h (1 Bft) 100,00 %
12.03.2019 08:00 -0,3 C -0,5 C -0,3 C 93 % 0 cb 1025,5 hPa 0,0 l/m 0,0 km/h (0 Bft) N 0 0 min 0,025 mm 102 W/m -1,3 C -0,3 C 0,0 km/h (0 Bft) 99,56 %
12.03.2019 08:10 -0,1 C -0,3 C -0,1 C 92 % 0 cb 1025,3 hPa 0,0 l/m 0,0 km/h (0 Bft) SW 225 0 min 0,000 mm 132 W/m -1,2 C -0,1 C 1,6 km/h (1 Bft) 100,00 %
12.03.2019 08:20 0,3 C -0,1 C 0,3 C 92 % 0 cb 1025,2 hPa 0,0 l/m 0,0 km/h (0 Bft) SW 225 10 min 0,000 mm 178 W/m -0,8 C 0,3 C 1,6 km/h (1 Bft) 100,00 %
12.03.2019 08:30 0,6 C 0,3 C 0,6 C 91 % 0 cb 1025,1 hPa 0,0 l/m 0,0 km/h (0 Bft) SW 225 0 min 0,000 mm 146 W/m -0,7 C 0,6 C 3,2 km/h (1 Bft) 100,00 %
12.03.2019 08:40 0,9 C 0,6 C 0,9 C 91 % 0 cb 1024,8 hPa 0,0 l/m 0,0 km/h (0 Bft) SW 225 10 min 0,000 mm 220 W/m -0,4 C 0,9 C 1,6 km/h (1 Bft) 100,00 %
12.03.2019 08:50 1,6 C 0,9 C 1,6 C 89 % 0 cb 1024,7 hPa 0,0 l/m 0,0 km/h (0 Bft) SW 225 10 min 0,000 mm 253 W/m -0,0 C 1,6 C 1,6 km/h (1 Bft) 100,00 %
12.03.2019 09:00 1,9 C 1,6 C 1,9 C 86 % 0 cb 1024,5 hPa 0,0 l/m 1,6 km/h (1 Bft) SW 225 10 min 0,051 mm 165 W/m -0,2 C 1,9 C 4,8 km/h (1 Bft) 100,00 %
12.03.2019 09:10 2,2 C 1,9 C 2,2 C 84 % 0 cb 1024,3 hPa 0,0 l/m 1,6 km/h (1 Bft) S-SW 202 10 min 0,000 mm 255 W/m -0,2 C 2,2 C 6,4 km/h (2 Bft) 99,12 %
12.03.2019 09:20 2,5 C 2,2 C 2,5 C 82 % 0 cb 1024,1 hPa 0,0 l/m 4,8 km/h (1 Bft) S-SW 202 10 min 0,000 mm 276 W/m -0,3 C 1,3 C 12,9 km/h (3 Bft) 100,00 %
12.03.2019 09:30 2,9 C 2,5 C 2,9 C 80 % 0 cb 1024,1 hPa 0,0 l/m 3,2 km/h (1 Bft) S 180 10 min 0,000 mm 345 W/m -0,2 C 2,9 C 8,0 km/h (2 Bft) 100,00 %
12.03.2019 09:40 3,3 C 2,9 C 3,3 C 78 % 0 cb 1023,9 hPa 0,0 l/m 6,4 km/h (2 Bft) S 180 10 min 0,000 mm 410 W/m -0,2 C 1,6 C 16,1 km/h (3 Bft) 100,00 %
12.03.2019 09:50 3,7 C 3,3 C 3,7 C 77 % 0 cb 1023,7 hPa 0,0 l/m 6,4 km/h (2 Bft) S 180 10 min 0,000 mm 387 W/m 0,1 C 2,1 C 17,7 km/h (3 Bft) 100,00 %
12.03.2019 10:00 3,9 C 3,7 C 3,9 C 75 % 0 cb 1023,5 hPa 0,0 l/m 8,0 km/h (2 Bft) S 180 10 min 0,127 mm 425 W/m -0,1 C 1,8 C 19,3 km/h (3 Bft) 100,00 %
12.03.2019 10:10 4,4 C 3,9 C 4,4 C 74 % 0 cb 1023,2 hPa 0,0 l/m 4,8 km/h (1 Bft) S 180 10 min 0,000 mm 531 W/m 0,2 C 3,5 C 16,1 km/h (3 Bft) 100,00 %
12.03.2019 10:20 4,7 C 4,4 C 4,8 C 72 % 0 cb 1023,1 hPa 0,0 l/m 6,4 km/h (2 Bft) S-SW 202 10 min 0,000 mm 478 W/m 0,1 C 3,2 C 20,9 km/h (4 Bft) 100,00 %
12.03.2019 10:30 4,8 C 4,7 C 4,8 C 71 % 0 cb 1023,0 hPa 0,0 l/m 6,4 km/h (2 Bft) S 180 10 min 0,000 mm 338 W/m -0,0 C 3,4 C 22,5 km/h (4 Bft) 100,00 %
12.03.2019 10:40 5,0 C 4,8 C 5,0 C 71 % 0 cb 1022,9 hPa 0,0 l/m 11,3 km/h (2 Bft) S-SW 202 10 min 0,000 mm 536 W/m 0,2 C 2,4 C 25,7 km/h (4 Bft) 100,00 %
12.03.2019 10:50 5,1 C 5,0 C 5,2 C 69 % 0 cb 1022,6 hPa 0,0 l/m 9,7 km/h (2 Bft) S-SW 202 10 min 0,000 mm 408 W/m -0,1 C 2,8 C 24,1 km/h (4 Bft) 100,00 %
12.03.2019 11:00 5,3 C 5,1 C 5,3 C 70 % 0 cb 1022,5 hPa 0,0 l/m 8,0 km/h (2 Bft) S-SW 202 10 min 0,152 mm 378 W/m 0,3 C 3,5 C 19,3 km/h (3 Bft) 99,56 %
12.03.2019 11:10 5,7 C 5,3 C 5,7 C 68 % 0 cb 1022,1 hPa 0,0 l/m 8,0 km/h (2 Bft) S 180 10 min 0,000 mm 454 W/m 0,3 C 4,0 C 20,9 km/h (4 Bft) 100,00 %
12.03.2019 11:20 6,0 C 5,7 C 6,0 C 66 % 0 cb 1021,8 hPa 0,0 l/m 8,0 km/h (2 Bft) S-SW 202 10 min 0,000 mm 396 W/m 0,1 C 4,3 C 30,6 km/h (5 Bft) 100,00 %
12.03.2019 11:30 6,0 C 6,0 C 6,1 C 65 % 0 cb 1021,5 hPa 0,0 l/m 9,7 km/h (2 Bft) S-SW 202 10 min 0,000 mm 374 W/m -0,1 C 3,9 C 30,6 km/h (5 Bft) 100,00 %
12.03.2019 11:40 6,0 C 5,9 C 6,0 C 65 % 0 cb 1021,3 hPa 0,0 l/m 9,7 km/h (2 Bft) S-SW 202 10 min 0,000 mm 345 W/m -0,1 C 3,9 C 30,6 km/h (5 Bft) 100,00 %
12.03.2019 11:50 6,1 C 6,0 C 6,1 C 65 % 0 cb 1021,0 hPa 0,0 l/m 8,0 km/h (2 Bft) S-SW 202 10 min 0,000 mm 299 W/m 0,0 C 4,4 C 22,5 km/h (4 Bft) 99,56 %
12.03.2019 12:00 6,2 C 6,1 C 6,2 C 65 % 0 cb 1020,8 hPa 0,0 l/m 8,0 km/h (2 Bft) S-SW 202 10 min 0,152 mm 278 W/m 0,1 C 4,5 C 27,4 km/h (4 Bft) 100,00 %
12.03.2019 12:10 6,3 C 6,1 C 6,3 C 65 % 0 cb 1020,5 hPa 0,0 l/m 6,4 km/h (2 Bft) S-SW 202 10 min 0,000 mm 348 W/m 0,2 C 5,1 C 24,1 km/h (4 Bft) 100,00 %
12.03.2019 12:20 6,6 C 6,3 C 6,6 C 64 % 0 cb 1020,3 hPa 0,0 l/m 9,7 km/h (2 Bft) S-SW 202 10 min 0,000 mm 476 W/m 0,3 C 4,6 C 32,2 km/h (5 Bft) 100,00 %
12.03.2019 12:30 6,6 C 6,6 C 6,6 C 64 % 0 cb 1019,9 hPa 0,0 l/m 12,9 km/h (3 Bft) S-SW 202 10 min 0,000 mm 543 W/m 0,3 C 4,0 C 25,7 km/h (4 Bft) 100,00 %
12.03.2019 12:40 6,7 C 6,6 C 6,7 C 63 % 0 cb 1019,7 hPa 0,0 l/m 14,5 km/h (3 Bft) S 180 10 min 0,000 mm 468 W/m 0,2 C 3,9 C 32,2 km/h (5 Bft) 100,00 %
12.03.2019 12:50 6,7 C 6,6 C 6,7 C 62 % 0 cb 1019,5 hPa 0,0 l/m 14,5 km/h (3 Bft) S-SW 202 10 min 0,000 mm 443 W/m -0,1 C 3,9 C 29,0 km/h (5 Bft) 99,56 %
12.03.2019 13:00 7,2 C 6,7 C 7,2 C 60 % 0 cb 1019,0 hPa 0,0 l/m 11,3 km/h (2 Bft) S-SW 202 10 min 0,203 mm 598 W/m -0,0 C 5,0 C 24,1 km/h (4 Bft) 100,00 %
12.03.2019 13:10 7,8 C 7,2 C 7,8 C 59 % 0 cb 1018,9 hPa 0,0 l/m 9,7 km/h (2 Bft) S-SW 202 10 min 0,000 mm 599 W/m 0,3 C 6,1 C 25,7 km/h (4 Bft) 100,00 %
12.03.2019 13:20 8,0 C 7,8 C 8,0 C 58 % 0 cb 1018,6 hPa 0,0 l/m 9,7 km/h (2 Bft) S-SW 202 10 min 0,000 mm 524 W/m 0,3 C 6,3 C 29,0 km/h (5 Bft) 100,00 %
12.03.2019 13:30 7,8 C 7,7 C 8,0 C 58 % 0 cb 1018,2 hPa 0,0 l/m 14,5 km/h (3 Bft) S 180 10 min 0,000 mm 580 W/m 0,1 C 5,3 C 38,6 km/h (5 Bft) 100,00 %
12.03.2019 13:40 8,1 C 7,8 C 8,1 C 57 % 0 cb 1017,8 hPa 0,0 l/m 9,7 km/h (2 Bft) S 180 10 min 0,000 mm 585 W/m 0,1 C 6,4 C 29,0 km/h (5 Bft) 100,00 %
12.03.2019 13:50 8,2 C 8,1 C 8,2 C 54 % 0 cb 1017,6 hPa 0,0 l/m 12,9 km/h (3 Bft) S 180 10 min 0,000 mm 517 W/m -0,5 C 6,0 C 29,0 km/h (5 Bft) 100,00 %
12.03.2019 14:00 8,3 C 8,2 C 8,4 C 54 % 0 cb 1017,3 hPa 0,0 l/m 9,7 km/h (2 Bft) S-SW 202 10 min 0,254 mm 485 W/m -0,5 C 6,7 C 24,1 km/h (4 Bft) 100,00 %
12.03.2019 14:10 7,9 C 7,9 C 8,3 C 51 % 0 cb 1016,9 hPa 0,0 l/m 14,5 km/h (3 Bft) S-SW 202 10 min 0,000 mm 462 W/m -1,6 C 5,4 C 30,6 km/h (5 Bft) 100,00 %
12.03.2019 14:20 8,2 C 7,9 C 8,2 C 53 % 0 cb 1016,6 hPa 0,0 l/m 9,7 km/h (2 Bft) S-SW 202 10 min 0,000 mm 441 W/m -0,8 C 6,5 C 27,4 km/h (4 Bft) 100,00 %
12.03.2019 14:30 8,1 C 8,1 C 8,2 C 53 % 0 cb 1016,3 hPa 0,0 l/m 12,9 km/h (3 Bft) S-SW 202 10 min 0,000 mm 422 W/m -0,9 C 5,9 C 27,4 km/h (4 Bft) 100,00 %
12.03.2019 14:40 8,2 C 8,1 C 8,2 C 53 % 0 cb 1016,2 hPa 0,0 l/m 12,9 km/h (3 Bft) S-SW 202 10 min 0,000 mm 429 W/m -0,8 C 6,0 C 29,0 km/h (5 Bft) 100,00 %
12.03.2019 14:50 8,6 C 8,1 C 8,6 C 52 % 0 cb 1015,9 hPa 0,0 l/m 9,7 km/h (2 Bft) S 180 10 min 0,000 mm 489 W/m -0,7 C 7,0 C 27,4 km/h (4 Bft) 100,00 %
12.03.2019 15:00 8,4 C 8,4 C 8,6 C 51 % 0 cb 1015,7 hPa 0,0 l/m 11,3 km/h (2 Bft) S 180 10 min 0,229 mm 322 W/m -1,1 C 6,5 C 24,1 km/h (4 Bft) 99,56 %
12.03.2019 15:10 8,3 C 8,3 C 8,4 C 51 % 0 cb 1015,4 hPa 0,0 l/m 11,3 km/h (2 Bft) S 180 10 min 0,000 mm 327 W/m -1,2 C 6,4 C 24,1 km/h (4 Bft) 100,00 %
12.03.2019 15:20 8,4 C 8,3 C 8,4 C 50 % 0 cb 1015,1 hPa 0,0 l/m 11,3 km/h (2 Bft) S-SW 202 10 min 0,000 mm 362 W/m -1,4 C 6,5 C 27,4 km/h (4 Bft) 100,00 %
12.03.2019 15:30 8,3 C 8,3 C 8,4 C 50 % 0 cb 1014,7 hPa 0,0 l/m 12,9 km/h (3 Bft) S 180 10 min 0,000 mm 309 W/m -1,5 C 6,1 C 29,0 km/h (5 Bft) 100,00 %
12.03.2019 15:40 8,6 C 8,3 C 8,6 C 50 % 0 cb 1014,4 hPa 0,0 l/m 11,3 km/h (2 Bft) S 180 10 min 0,000 mm 329 W/m -1,2 C 6,7 C 24,1 km/h (4 Bft) 100,00 %
12.03.2019 15:50 8,4 C 8,4 C 8,6 C 49 % 0 cb 1014,1 hPa 0,0 l/m 16,1 km/h (3 Bft) S 180 10 min 0,000 mm 251 W/m -1,7 C 5,8 C 35,4 km/h (5 Bft) 100,00 %
12.03.2019 16:00 8,3 C 8,3 C 8,4 C 49 % 0 cb 1013,8 hPa 0,0 l/m 12,9 km/h (3 Bft) S-SW 202 10 min 0,178 mm 218 W/m -1,8 C 6,1 C 29,0 km/h (5 Bft) 100,00 %
12.03.2019 16:10 8,3 C 8,3 C 8,3 C 49 % 0 cb 1013,6 hPa 0,0 l/m 11,3 km/h (2 Bft) S-SW 202 10 min 0,000 mm 185 W/m -1,8 C 6,4 C 24,1 km/h (4 Bft) 100,00 %
12.03.2019 16:20 8,3 C 8,3 C 8,3 C 47 % 0 cb 1013,3 hPa 0,0 l/m 12,9 km/h (3 Bft) S-SW 202 10 min 0,000 mm 153 W/m -2,3 C 6,1 C 33,8 km/h (5 Bft) 100,00 %
12.03.2019 16:30 8,3 C 8,3 C 8,3 C 46 % 0 cb 1012,8 hPa 0,0 l/m 14,5 km/h (3 Bft) S 180 0 min 0,000 mm 128 W/m -2,6 C 5,9 C 27,4 km/h (4 Bft) 100,00 %
12.03.2019 16:40 8,2 C 8,2 C 8,3 C 45 % 0 cb 1012,5 hPa 0,0 l/m 12,9 km/h (3 Bft) S 180 0 min 0,000 mm 100 W/m -3,0 C 6,0 C 25,7 km/h (4 Bft) 100,00 %
12.03.2019 16:50 8,2 C 8,2 C 8,2 C 46 % 0 cb 1012,2 hPa 0,0 l/m 9,7 km/h (2 Bft) S-SW 202 0 min 0,000 mm 84 W/m -2,7 C 6,5 C 22,5 km/h (4 Bft) 100,00 %
12.03.2019 17:00 8,2 C 8,2 C 8,2 C 45 % 0 cb 1011,9 hPa 0,0 l/m 11,3 km/h (2 Bft) S 180 0 min 0,127 mm 74 W/m -3,0 C 6,2 C 22,5 km/h (4 Bft) 100,00 %
12.03.2019 17:10 8,2 C 8,2 C 8,2 C 44 % 0 cb 1011,5 hPa 0,0 l/m 12,9 km/h (3 Bft) S 180 0 min 0,000 mm 56 W/m -3,3 C 6,0 C 27,4 km/h (4 Bft) 100,00 %
12.03.2019 17:20 8,2 C 8,2 C 8,2 C 43 % 0 cb 1011,2 hPa 0,0 l/m 14,5 km/h (3 Bft) S 180 0 min 0,000 mm 51 W/m -3,6 C 5,8 C 27,4 km/h (4 Bft) 100,00 %
12.03.2019 17:30 8,2 C 8,2 C 8,2 C 44 % 0 cb 1011,0 hPa 0,0 l/m 9,7 km/h (2 Bft) S 180 0 min 0,000 mm 46 W/m -3,3 C 6,5 C 20,9 km/h (4 Bft) 100,00 %
12.03.2019 17:40 8,1 C 8,1 C 8,2 C 46 % 0 cb 1010,7 hPa 0,0 l/m 8,0 km/h (2 Bft) S 180 0 min 0,000 mm 39 W/m -2,8 C 6,8 C 19,3 km/h (3 Bft) 100,00 %
12.03.2019 17:50 8,0 C 7,9 C 8,1 C 46 % 0 cb 1010,3 hPa 0,0 l/m 11,3 km/h (2 Bft) S 180 0 min 0,000 mm 30 W/m -2,9 C 6,0 C 19,3 km/h (3 Bft) 100,00 %
12.03.2019 18:00 8,0 C 8,0 C 8,0 C 46 % 0 cb 1010,0 hPa 0,0 l/m 9,7 km/h (2 Bft) S 180 0 min 0,076 mm 23 W/m -2,9 C 6,3 C 24,1 km/h (4 Bft) 100,00 %
12.03.2019 18:10 8,0 C 8,0 C 8,0 C 45 % 0 cb 1010,0 hPa 0,0 l/m 9,7 km/h (2 Bft) S 180 0 min 0,000 mm 16 W/m -3,2 C 6,3 C 19,3 km/h (3 Bft) 100,00 %
12.03.2019 18:20 8,1 C 8,0 C 8,1 C 45 % 0 cb 1009,9 hPa 0,0 l/m 6,4 km/h (2 Bft) S 180 0 min 0,000 mm 7 W/m -3,1 C 7,2 C 14,5 km/h (3 Bft) 99,56 %
12.03.2019 18:30 8,1 C 8,0 C 8,1 C 44 % 0 cb 1009,7 hPa 0,0 l/m 8,0 km/h (2 Bft) S 180 0 min 0,000 mm 5 W/m -3,4 C 6,8 C 17,7 km/h (3 Bft) 100,00 %
12.03.2019 18:40 8,2 C 8,1 C 8,2 C 44 % 0 cb 1009,3 hPa 0,0 l/m 9,7 km/h (2 Bft) S 180 0 min 0,000 mm 0 W/m -3,3 C 6,5 C 22,5 km/h (4 Bft) 100,00 %
12.03.2019 18:50 8,2 C 8,2 C 8,2 C 43 % 0 cb 1009,2 hPa 0,0 l/m 6,4 km/h (2 Bft) S 180 0 min 0,000 mm 0 W/m -3,6 C 7,3 C 16,1 km/h (3 Bft) 100,00 %
12.03.2019 19:00 8,2 C 8,2 C 8,2 C 42 % 0 cb 1009,0 hPa 0,0 l/m 8,0 km/h (2 Bft) S-SW 202 0 min 0,051 mm 0 W/m -3,9 C 6,9 C 24,1 km/h (4 Bft) 100,00 %
12.03.2019 19:10 8,2 C 8,2 C 8,2 C 42 % 0 cb 1008,8 hPa 0,0 l/m 8,0 km/h (2 Bft) S 180 0 min 0,000 mm 0 W/m -3,9 C 6,9 C 17,7 km/h (3 Bft) 100,00 %
12.03.2019 19:20 8,3 C 8,2 C 8,3 C 42 % 0 cb 1008,6 hPa 0,0 l/m 8,0 km/h (2 Bft) S-SW 202 0 min 0,000 mm 0 W/m -3,8 C 7,0 C 22,5 km/h (4 Bft) 100,00 %
12.03.2019 19:30 8,3 C 8,3 C 8,4 C 42 % 0 cb 1008,3 hPa 0,0 l/m 6,4 km/h (2 Bft) S-SW 202 0 min 0,000 mm 0 W/m -3,8 C 7,4 C 24,1 km/h (4 Bft) 100,00 %
12.03.2019 19:40 8,4 C 8,3 C 8,4 C 42 % 0 cb 1008,1 hPa 0,0 l/m 9,7 km/h (2 Bft) S-SW 202 0 min 0,000 mm 0 W/m -3,8 C 6,8 C 24,1 km/h (4 Bft) 100,00 %
12.03.2019 19:50 8,6 C 8,4 C 8,6 C 41 % 0 cb 1007,9 hPa 0,0 l/m 9,7 km/h (2 Bft) S-SW 202 0 min 0,000 mm 0 W/m -3,9 C 7,0 C 27,4 km/h (4 Bft) 100,00 %
12.03.2019 20:00 8,7 C 8,6 C 8,7 C 41 % 0 cb 1007,7 hPa 0,0 l/m 9,7 km/h (2 Bft) S-SW 202 0 min 0,076 mm 0 W/m -3,8 C 7,1 C 33,8 km/h (5 Bft) 100,00 %
12.03.2019 20:10 8,7 C 8,7 C 8,8 C 43 % 0 cb 1007,3 hPa 0,0 l/m 9,7 km/h (2 Bft) SW 225 0 min 0,000 mm 0 W/m -3,2 C 7,1 C 24,1 km/h (4 Bft) 99,56 %
12.03.2019 20:20 8,7 C 8,7 C 8,7 C 43 % 0 cb 1007,2 hPa 0,0 l/m 6,4 km/h (2 Bft) S-SW 202 0 min 0,000 mm 0 W/m -3,2 C 7,9 C 25,7 km/h (4 Bft) 100,00 %
12.03.2019 20:30 8,7 C 8,7 C 8,7 C 43 % 0 cb 1007,0 hPa 0,0 l/m 9,7 km/h (2 Bft) S-SW 202 0 min 0,000 mm 0 W/m -3,2 C 7,1 C 24,1 km/h (4 Bft) 100,00 %
12.03.2019 20:40 8,8 C 8,7 C 8,8 C 43 % 0 cb 1006,6 hPa 0,0 l/m 9,7 km/h (2 Bft) S-SW 202 0 min 0,000 mm 0 W/m -3,1 C 7,3 C 24,1 km/h (4 Bft) 100,00 %
12.03.2019 20:50 8,8 C 8,8 C 8,8 C 44 % 0 cb 1006,5 hPa 0,0 l/m 9,7 km/h (2 Bft) S-SW 202 0 min 0,000 mm 0 W/m -2,8 C 7,3 C 30,6 km/h (5 Bft) 100,00 %
12.03.2019 21:00 8,8 C 8,8 C 8,8 C 45 % 0 cb 1006,4 hPa 0,0 l/m 9,7 km/h (2 Bft) S-SW 202 0 min 0,076 mm 0 W/m -2,5 C 7,3 C 24,1 km/h (4 Bft) 99,56 %
12.03.2019 21:10 8,9 C 8,8 C 8,9 C 45 % 0 cb 1006,1 hPa 0,0 l/m 9,7 km/h (2 Bft) S-SW 202 0 min 0,000 mm 0 W/m -2,4 C 7,4 C 27,4 km/h (4 Bft) 100,00 %
12.03.2019 21:20 8,9 C 8,9 C 8,9 C 47 % 0 cb 1006,0 hPa 0,0 l/m 6,4 km/h (2 Bft) SW 225 0 min 0,000 mm 0 W/m -1,8 C 8,1 C 24,1 km/h (4 Bft) 100,00 %
12.03.2019 21:30 8,9 C 8,9 C 9,0 C 51 % 0 cb 1005,7 hPa 0,0 l/m 8,0 km/h (2 Bft) S-SW 202 0 min 0,000 mm 0 W/m -0,7 C 7,7 C 25,7 km/h (4 Bft) 100,00 %
12.03.2019 21:40 8,9 C 8,9 C 8,9 C 52 % 0 cb 1005,5 hPa 0,0 l/m 9,7 km/h (2 Bft) S-SW 202 0 min 0,000 mm 0 W/m -0,4 C 7,4 C 30,6 km/h (5 Bft) 100,00 %
12.03.2019 21:50 9,0 C 8,9 C 9,1 C 54 % 0 cb 1005,5 hPa 0,0 l/m 8,0 km/h (2 Bft) S-SW 202 0 min 0,000 mm 0 W/m 0,2 C 7,8 C 29,0 km/h (5 Bft) 100,00 %
12.03.2019 22:00 8,7 C 8,7 C 9,0 C 59 % 0 cb 1005,4 hPa 0,0 l/m 9,7 km/h (2 Bft) S-SW 202 0 min 0,076 mm 0 W/m 1,1 C 7,1 C 38,6 km/h (5 Bft) 100,00 %
12.03.2019 22:10 8,3 C 8,3 C 8,7 C 64 % 0 cb 1005,4 hPa 0,0 l/m 12,9 km/h (3 Bft) W-SW 247 0 min 0,000 mm 0 W/m 1,9 C 6,1 C 33,8 km/h (5 Bft) 100,00 %
12.03.2019 22:20 8,3 C 8,2 C 8,3 C 64 % 0 cb 1005,5 hPa 0,0 l/m 9,7 km/h (2 Bft) SW 225 0 min 0,000 mm 0 W/m 1,9 C 6,7 C 35,4 km/h (5 Bft) 100,00 %
12.03.2019 22:30 8,5 C 8,3 C 8,5 C 64 % 0 cb 1005,6 hPa 0,0 l/m 11,3 km/h (2 Bft) S-SW 202 0 min 0,000 mm 0 W/m 2,1 C 6,6 C 37,0 km/h (5 Bft) 100,00 %
12.03.2019 22:40 8,9 C 8,5 C 8,9 C 65 % 0 cb 1005,6 hPa 0,0 l/m 12,9 km/h (3 Bft) SW 225 0 min 0,000 mm 0 W/m 2,7 C 6,8 C 49,9 km/h (6 Bft) 100,00 %
12.03.2019 22:50 8,8 C 8,8 C 8,9 C 68 % 0 cb 1005,8 hPa 0,2 l/m 14,5 km/h (3 Bft) W 270 0 min 0,000 mm 0 W/m 3,2 C 6,5 C 43,5 km/h (6 Bft) 100,00 %
12.03.2019 23:00 7,7 C 7,7 C 8,8 C 78 % 0 cb 1006,0 hPa 0,2 l/m 20,9 km/h (4 Bft) W 270 0 min 0,051 mm 0 W/m 4,1 C 4,4 C 43,5 km/h (6 Bft) 100,00 %
12.03.2019 23:10 6,7 C 6,7 C 7,7 C 82 % 0 cb 1006,3 hPa 0,2 l/m 19,3 km/h (3 Bft) W 270 0 min 0,000 mm 0 W/m 3,8 C 3,3 C 41,8 km/h (6 Bft) 100,00 %
12.03.2019 23:20 6,1 C 6,1 C 6,7 C 86 % 0 cb 1007,1 hPa 0,2 l/m 14,5 km/h (3 Bft) W 270 0 min 0,000 mm 0 W/m 3,9 C 3,2 C 30,6 km/h (5 Bft) 100,00 %
12.03.2019 23:30 5,4 C 5,4 C 6,0 C 86 % 0 cb 1007,4 hPa 0,4 l/m 12,9 km/h (3 Bft) W-NW 292 0 min 0,000 mm 0 W/m 3,3 C 2,6 C 25,7 km/h (4 Bft) 100,00 %
12.03.2019 23:40 4,9 C 4,9 C 5,4 C 85 % 0 cb 1007,8 hPa 0,0 l/m 11,3 km/h (2 Bft) W 270 0 min 0,000 mm 0 W/m 2,6 C 2,3 C 32,2 km/h (5 Bft) 99,56 %
12.03.2019 23:50 4,7 C 4,7 C 4,9 C 86 % 0 cb 1008,4 hPa 0,0 l/m 9,7 km/h (2 Bft) W 270 0 min 0,000 mm 0 W/m 2,6 C 2,4 C 29,0 km/h (5 Bft) 100,00 %
_ Min-Zeit 04:50 04:50 04:50 19:50 00:00 22:00 - 00:40 - - - - - 19:00 04:50 02:20 06:20
Minimum _ -1,2 C -1,2 C -1,1 C 41 % 0 cb 1005,4 hPa - 0,0 km/h (0 Bft) - - - - - -3,9 C -1,2 C 0,0 km/h (0 Bft) 96,93 %
_ Max-Zeit 21:50 21:20 21:50 05:10 00:00 02:20 23:30 23:00 - - 08:20 14:00 13:10 23:00 21:20 22:40 00:00
Maximum _ 9,1 C 8,9 C 9,1 C 93 % 0 cb 1028,2 hPa 0,4 l/m 20,9 km/h
W (4 Bft)
- - 10 min 0,254 mm 599 W/m 4,1 C 8,1 C 49,9 km/h
W (6 Bft)
100,00 %
Durchschnitt _ 4,5 C 4,4 C 4,6 C 70 % 0 cb 1018,7 hPa #1,2 l/m 6,4 km/h (2 Bft) S-SW - #8:00 h #1,929 mm 281 W/m -1,2 C 3,4 C 17,0 km/h (3 Bft) 99,92 %
Wetterstation Gdesweiler